Time;durP1;ratioP1;P1;durP2;ratioP2;P2;SDS_P1;SDS_P2;PMS_P1;PMS_P2;Temp;Humidity;BMP_temperature;BMP_pressure;BME280_temperature;BME280_humidity;BME280_pressure;Samples;Min_cycle;Max_cycle;Signal;HPM_P1;HPM_P2
2022/03/05 00:00:45;;;;;;;5.60;4.25;;;21.20;50.90;;;;;;4974142;28;20196;-70
2022/03/05 00:03:12;;;;;;;4.07;3.67;;;21.20;50.90;;;;;;4956568;28;20758;-70
2022/03/05 00:05:39;;;;;;;4.25;3.85;;;21.30;51.00;;;;;;4957322;28;20201;-71
2022/03/05 00:08:07;;;;;;;6.03;4.53;;;21.30;51.00;;;;;;4974475;28;20200;-70
2022/03/05 00:10:33;;;;;;;5.57;4.47;;;21.20;51.00;;;;;;4975254;28;20228;-70
2022/03/05 00:13:00;;;;;;;5.18;4.53;;;21.20;50.90;;;;;;4958125;28;20225;-70
2022/03/05 00:15:28;;;;;;;4.65;4.10;;;21.20;50.90;;;;;;4970252;28;20190;-70
2022/03/05 00:17:55;;;;;;;4.30;3.90;;;21.30;50.90;;;;;;4947440;28;20690;-70
2022/03/05 00:20:24;;;;;;;5.32;4.22;;;21.20;50.70;;;;;;4975042;28;20196;-68
2022/03/05 00:22:52;;;;;;;4.75;4.05;;;21.20;50.80;;;;;;4948024;28;20209;-70
2022/03/05 00:25:20;;;;;;;4.38;3.97;;;21.20;50.80;;;;;;4950100;29;20194;-69
2022/03/05 00:27:46;;;;;;;3.92;3.53;;;21.20;50.90;;;;;;4938784;29;20282;-70
2022/03/05 00:30:13;;;;;;;4.90;3.50;;;21.20;50.80;;;;;;4953859;28;20209;-70
2022/03/05 00:32:39;;;;;;;4.20;3.80;;;21.20;50.90;;;;;;4954786;28;20206;-71
2022/03/05 00:35:07;;;;;;;4.72;3.55;;;21.20;50.80;;;;;;4942115;28;20189;-70
2022/03/05 00:37:33;;;;;;;4.03;3.50;;;21.20;50.80;;;;;;4964791;28;20208;-69
2022/03/05 00:39:59;;;;;;;4.35;3.83;;;21.20;50.90;;;;;;4973539;28;20326;-70
2022/03/05 00:42:25;;;;;;;4.45;3.40;;;21.30;50.90;;;;;;4957540;28;20229;-70
2022/03/05 00:44:51;;;;;;;4.20;3.40;;;21.20;50.80;;;;;;4957495;28;20220;-71
2022/03/05 00:47:17;;;;;;;3.63;3.30;;;21.20;50.90;;;;;;4957442;28;20194;-74
2022/03/05 00:49:43;;;;;;;6.05;3.67;;;21.20;50.90;;;;;;4941866;28;20304;-70
2022/03/05 00:52:09;;;;;;;4.75;3.58;;;21.20;50.80;;;;;;4941113;28;20210;-69
2022/03/05 00:54:35;;;;;;;4.22;3.83;;;21.20;50.90;;;;;;4957472;28;20264;-70
2022/03/05 00:57:02;;;;;;;4.55;4.15;;;21.20;50.90;;;;;;4957447;28;20193;-70
2022/03/05 00:59:28;;;;;;;4.38;4.07;;;21.20;50.90;;;;;;4941362;28;20189;-70
2022/03/05 01:01:55;;;;;;;4.75;4.22;;;21.20;50.80;;;;;;4956944;28;20217;-70
2022/03/05 01:04:21;;;;;;;4.40;3.97;;;21.20;50.80;;;;;;4974093;28;20201;-69
2022/03/05 01:06:47;;;;;;;5.13;3.83;;;21.20;50.80;;;;;;4974375;28;20280;-70
2022/03/05 01:09:13;;;;;;;4.10;3.80;;;21.20;50.80;;;;;;4956909;28;20276;-70
2022/03/05 01:11:39;;;;;;;5.65;3.90;;;21.20;50.80;;;;;;4956691;28;20206;-69
2022/03/05 01:14:07;;;;;;;6.18;4.18;;;21.20;50.80;;;;;;4956884;28;20186;-70
2022/03/05 01:16:34;;;;;;;5.18;3.63;;;21.20;50.90;;;;;;4941327;28;20189;-70
2022/03/05 01:19:01;;;;;;;5.35;4.07;;;21.20;50.90;;;;;;4940939;28;20292;-70
2022/03/05 01:21:27;;;;;;;4.53;3.60;;;21.20;50.80;;;;;;4956641;28;20190;-70
2022/03/05 01:23:56;;;;;;;5.18;3.67;;;21.20;50.90;;;;;;4957083;28;20196;-71
2022/03/05 01:26:22;;;;;;;4.18;3.30;;;21.20;50.80;;;;;;4956656;28;20193;-70
2022/03/05 01:28:48;;;;;;;4.25;3.60;;;21.20;50.90;;;;;;4940411;28;20200;-70
2022/03/05 01:31:14;;;;;;;4.55;3.45;;;21.20;50.90;;;;;;4956369;28;20210;-69
2022/03/05 01:33:41;;;;;;;3.80;3.47;;;21.20;50.90;;;;;;4940652;28;20181;-71
2022/03/05 01:36:06;;;;;;;4.93;3.38;;;21.20;50.90;;;;;;4940749;28;20186;-71
2022/03/05 01:38:32;;;;;;;4.60;3.30;;;21.20;50.90;;;;;;4974000;28;20663;-70
2022/03/05 01:40:58;;;;;;;3.55;3.25;;;21.20;50.90;;;;;;4973695;28;20276;-70
2022/03/05 01:43:24;;;;;;;4.07;3.22;;;21.20;50.90;;;;;;4956602;28;20248;-70
2022/03/05 01:45:50;;;;;;;3.33;3.03;;;21.20;50.80;;;;;;4941585;29;20193;-70
2022/03/05 01:48:15;;;;;;;4.30;3.50;;;21.20;50.80;;;;;;4937283;29;20249;-70
2022/03/05 01:50:41;;;;;;;4.95;3.70;;;21.20;50.80;;;;;;4936948;29;20214;-70
2022/03/05 01:53:08;;;;;;;4.43;3.72;;;21.20;50.80;;;;;;4937335;29;20203;-70
2022/03/05 01:55:34;;;;;;;4.32;3.92;;;21.20;50.80;;;;;;4937128;29;20186;-71
2022/03/05 01:57:59;;;;;;;4.40;3.67;;;21.20;50.70;;;;;;4937480;29;20270;-70
2022/03/05 02:00:25;;;;;;;4.10;3.60;;;21.20;50.60;;;;;;4956577;28;20666;-69
2022/03/05 02:02:52;;;;;;;4.80;3.78;;;21.20;50.80;;;;;;4956253;28;20272;-69
2022/03/05 02:05:23;;;;;;;4.05;3.65;;;21.10;50.50;;;;;;4956882;28;20182;-68
2022/03/05 02:07:49;;;;;;;4.05;3.65;;;21.10;50.60;;;;;;4956211;28;20642;-69
2022/03/05 02:10:15;;;;;;;6.30;3.78;;;21.20;50.60;;;;;;4973403;28;20221;-69
2022/03/05 02:12:41;;;;;;;4.05;3.33;;;21.20;50.50;;;;;;4973200;28;20202;-69
2022/03/05 02:15:08;;;;;;;4.57;3.00;;;21.10;50.50;;;;;;4956170;28;20192;-69
2022/03/05 02:17:36;;;;;;;3.67;3.38;;;21.10;50.40;;;;;;4956109;28;20193;-68
2022/03/05 02:20:05;;;;;;;3.80;3.00;;;21.10;50.50;;;;;;4973308;28;20240;-68
2022/03/05 02:22:31;;;;;;;3.75;3.28;;;21.10;50.50;;;;;;4955741;28;20433;-69
2022/03/05 02:25:03;;;;;;;3.75;3.45;;;21.10;50.60;;;;;;4956175;28;20671;-69
2022/03/05 02:27:30;;;;;;;3.70;3.05;;;21.10;50.60;;;;;;4956223;28;20178;-69
2022/03/05 02:29:56;;;;;;;3.80;3.28;;;21.10;50.60;;;;;;4956261;28;20213;-69
2022/03/05 02:32:23;;;;;;;3.75;3.38;;;21.10;50.60;;;;;;4956109;28;20209;-69
2022/03/05 02:34:49;;;;;;;3.38;3.08;;;21.10;50.60;;;;;;4956259;28;20182;-69
2022/03/05 02:37:17;;;;;;;4.05;3.67;;;21.10;50.60;;;;;;4955805;28;20194;-69
2022/03/05 02:39:46;;;;;;;3.67;3.35;;;21.10;50.60;;;;;;4958792;28;20181;-69
2022/03/05 02:42:13;;;;;;;3.63;3.28;;;21.10;50.60;;;;;;4976720;28;20212;-69
2022/03/05 02:44:40;;;;;;;4.25;3.40;;;21.10;50.50;;;;;;4977026;28;20178;-69
2022/03/05 02:47:06;;;;;;;4.32;3.92;;;21.10;50.50;;;;;;4976872;28;20186;-69
2022/03/05 02:49:32;;;;;;;4.00;3.70;;;21.10;50.60;;;;;;4959431;28;20228;-67
2022/03/05 02:51:58;;;;;;;4.47;4.05;;;21.10;50.40;;;;;;4959366;28;20209;-69
2022/03/05 02:54:25;;;;;;;3.95;3.55;;;21.10;50.30;;;;;;4959556;28;20181;-70
2022/03/05 02:56:50;;;;;;;4.35;3.95;;;21.10;50.30;;;;;;4959430;28;20666;-69
2022/03/05 02:59:16;;;;;;;4.45;3.72;;;21.10;50.90;;;;;;4977068;28;20177;-68
2022/03/05 03:01:42;;;;;;;3.80;3.50;;;21.10;50.30;;;;;;4959187;28;20205;-69
2022/03/05 03:04:08;;;;;;;4.85;3.50;;;21.00;50.30;;;;;;4959480;28;20201;-69
2022/03/05 03:06:33;;;;;;;3.17;2.92;;;21.10;50.30;;;;;;4959496;28;20280;-69
2022/03/05 03:08:59;;;;;;;4.72;2.95;;;21.00;50.40;;;;;;4959268;28;20191;-69
2022/03/05 03:11:25;;;;;;;3.05;2.83;;;21.10;50.50;;;;;;4958781;28;20325;-69
2022/03/05 03:13:51;;;;;;;3.65;3.25;;;21.00;50.40;;;;;;4959187;28;20210;-69
2022/03/05 03:16:17;;;;;;;3.83;3.25;;;21.10;50.60;;;;;;4959110;28;20186;-69
2022/03/05 03:18:43;;;;;;;3.63;2.97;;;21.10;50.60;;;;;;4959023;28;20192;-69
2022/03/05 03:21:09;;;;;;;8.85;3.40;;;21.00;50.50;;;;;;4976135;28;20182;-69
2022/03/05 03:23:35;;;;;;;3.17;2.75;;;21.00;50.50;;;;;;4959206;28;20225;-68
2022/03/05 03:26:02;;;;;;;3.10;2.80;;;21.10;50.60;;;;;;4959349;28;20217;-68
2022/03/05 03:28:28;;;;;;;3.08;2.80;;;21.10;50.60;;;;;;4959101;28;20197;-69
2022/03/05 03:30:54;;;;;;;3.90;3.03;;;21.10;50.60;;;;;;4958521;28;20201;-69
2022/03/05 03:33:19;;;;;;;3.55;3.25;;;21.00;50.50;;;;;;4958651;28;20252;-69
2022/03/05 03:35:45;;;;;;;3.90;3.50;;;21.10;50.70;;;;;;4959000;28;20245;-69
2022/03/05 03:38:11;;;;;;;3.83;3.53;;;21.00;50.60;;;;;;4959042;28;20276;-69
2022/03/05 03:40:37;;;;;;;3.60;3.30;;;21.00;50.40;;;;;;4958803;28;20193;-69
2022/03/05 03:43:03;;;;;;;4.68;3.38;;;21.00;50.50;;;;;;4958125;28;20209;-70
2022/03/05 03:45:31;;;;;;;3.92;3.63;;;21.00;50.40;;;;;;4967056;28;20186;-74
2022/03/05 03:47:57;;;;;;;3.85;3.50;;;21.00;50.60;;;;;;4975105;28;20200;-69
2022/03/05 03:50:24;;;;;;;4.43;4.03;;;21.00;50.40;;;;;;4941461;28;20213;-69
2022/03/05 03:52:51;;;;;;;3.78;3.45;;;21.00;50.20;;;;;;4948512;28;20231;-69
2022/03/05 03:55:20;;;;;;;4.22;3.80;;;21.00;50.20;;;;;;4942521;28;20202;-68
2022/03/05 03:57:46;;;;;;;4.18;3.75;;;21.00;50.30;;;;;;4942567;28;20178;-68
2022/03/05 04:00:16;;;;;;;3.58;3.25;;;21.00;50.30;;;;;;4958291;28;20619;-69
2022/03/05 04:02:42;;;;;;;3.35;2.83;;;21.00;50.40;;;;;;4942239;28;20260;-69
2022/03/05 04:05:09;;;;;;;4.15;3.00;;;20.90;50.30;;;;;;4942363;28;20272;-69
2022/03/05 04:10:19;;;;;;;3.03;2.75;;;21.00;50.50;;;;;;4974350;28;20253;-69
2022/03/05 04:12:45;;;;;;;3.20;2.90;;;20.90;50.50;;;;;;4957959;28;20337;-68
2022/03/05 04:15:11;;;;;;;4.70;2.92;;;21.00;50.60;;;;;;4958265;28;20306;-69
2022/03/05 04:17:38;;;;;;;3.65;3.22;;;21.00;50.60;;;;;;4975327;28;20219;-69
2022/03/05 04:20:09;;;;;;;3.33;3.03;;;21.00;50.60;;;;;;4975234;28;20185;-69
2022/03/05 04:22:35;;;;;;;4.40;3.55;;;21.00;50.50;;;;;;4957640;28;20263;-69
2022/03/05 04:25:02;;;;;;;4.28;3.88;;;21.00;50.40;;;;;;4941925;28;20193;-69
2022/03/05 04:27:28;;;;;;;4.35;3.97;;;21.00;50.40;;;;;;4941848;28;20268;-69
2022/03/05 04:29:53;;;;;;;5.00;4.45;;;21.00;50.40;;;;;;4973947;28;20704;-70
2022/03/05 04:32:19;;;;;;;5.25;4.15;;;20.90;50.30;;;;;;4957581;28;20233;-68
2022/03/05 04:34:45;;;;;;;4.65;4.15;;;20.90;50.20;;;;;;4957576;28;20190;-69
2022/03/05 04:37:11;;;;;;;4.53;4.00;;;21.00;50.30;;;;;;4943279;28;20189;-69
2022/03/05 04:39:36;;;;;;;4.78;4.32;;;21.00;50.30;;;;;;4976958;28;20189;-69
2022/03/05 04:42:03;;;;;;;4.70;4.10;;;20.90;50.10;;;;;;4960911;28;20208;-68
2022/03/05 04:44:29;;;;;;;5.00;3.92;;;20.90;50.20;;;;;;4961006;28;20189;-69
2022/03/05 04:46:55;;;;;;;3.75;3.45;;;20.90;50.30;;;;;;4977165;28;20275;-69
2022/03/05 04:49:21;;;;;;;3.35;3.05;;;20.90;50.30;;;;;;4994204;28;20271;-69
2022/03/05 04:51:46;;;;;;;3.30;3.00;;;20.90;50.30;;;;;;4976544;28;20197;-69
2022/03/05 04:54:12;;;;;;;3.45;3.15;;;20.90;50.40;;;;;;4994131;28;20692;-69
2022/03/05 04:56:38;;;;;;;3.38;3.08;;;20.90;50.40;;;;;;4960537;28;20185;-69
2022/03/05 04:59:05;;;;;;;4.40;2.90;;;20.90;50.50;;;;;;4976930;28;20173;-68
2022/03/05 05:01:31;;;;;;;3.15;2.85;;;20.90;50.40;;;;;;4976006;28;20181;-68
2022/03/05 05:03:57;;;;;;;3.35;3.05;;;20.90;50.40;;;;;;4976617;28;20243;-69
2022/03/05 05:06:23;;;;;;;3.90;3.28;;;20.90;50.50;;;;;;4993882;28;20245;-69
2022/03/05 05:08:48;;;;;;;3.65;3.35;;;20.90;50.40;;;;;;4960639;28;20604;-69
2022/03/05 05:11:14;;;;;;;3.58;3.22;;;20.90;50.50;;;;;;4959964;28;20694;-69
2022/03/05 05:13:40;;;;;;;3.88;3.45;;;20.90;50.40;;;;;;4976258;28;20563;-69
2022/03/05 05:16:06;;;;;;;6.75;3.90;;;20.90;50.40;;;;;;4992637;28;20189;-69
2022/03/05 05:18:33;;;;;;;4.10;3.70;;;20.90;50.40;;;;;;4976480;28;20211;-69
2022/03/05 05:21:00;;;;;;;4.25;3.85;;;20.90;50.40;;;;;;4992090;28;20193;-69
2022/03/05 05:23:26;;;;;;;5.20;4.70;;;20.90;50.30;;;;;;4976246;28;20583;-69
2022/03/05 05:25:52;;;;;;;4.60;4.20;;;20.90;50.30;;;;;;4976245;28;20181;-69
2022/03/05 05:28:18;;;;;;;4.78;4.38;;;20.90;50.30;;;;;;4959845;28;20196;-68
2022/03/05 05:30:44;;;;;;;4.60;4.07;;;20.90;50.90;;;;;;4976029;28;20217;-69
2022/03/05 05:33:10;;;;;;;4.72;4.22;;;20.90;50.20;;;;;;4975679;28;20205;-69
2022/03/05 05:35:36;;;;;;;4.47;4.07;;;20.90;50.20;;;;;;4976044;28;20203;-69
2022/03/05 05:38:01;;;;;;;5.28;4.78;;;20.90;50.00;;;;;;4960046;28;20188;-69
2022/03/05 05:40:27;;;;;;;4.40;4.00;;;20.90;50.20;;;;;;4975730;28;20189;-69
2022/03/05 05:42:53;;;;;;;4.10;3.70;;;20.90;50.20;;;;;;4959551;28;20299;-69
2022/03/05 05:45:19;;;;;;;3.60;3.28;;;20.90;50.20;;;;;;4959768;28;20193;-69
2022/03/05 05:47:45;;;;;;;3.50;3.20;;;20.90;50.30;;;;;;4959592;28;20256;-69
2022/03/05 05:50:11;;;;;;;3.38;3.08;;;20.90;50.20;;;;;;4975893;28;20267;-70
2022/03/05 05:52:38;;;;;;;3.63;3.20;;;20.90;50.40;;;;;;4975858;28;20196;-69
2022/03/05 05:55:04;;;;;;;3.78;3.22;;;20.90;50.30;;;;;;4975573;28;20184;-69
2022/03/05 05:57:30;;;;;;;3.78;3.47;;;20.90;50.40;;;;;;4975652;28;20224;-69
2022/03/05 05:59:56;;;;;;;3.80;3.45;;;20.90;50.40;;;;;;4975650;28;20197;-69
2022/03/05 06:02:23;;;;;;;3.75;3.30;;;20.90;50.40;;;;;;4959019;28;20223;-69
2022/03/05 06:04:48;;;;;;;4.72;3.17;;;20.90;51.00;;;;;;4975815;28;20360;-69
2022/03/05 06:07:14;;;;;;;3.88;3.53;;;20.90;50.40;;;;;;4959367;28;20288;-69
2022/03/05 06:09:40;;;;;;;3.78;3.47;;;20.90;50.40;;;;;;4959219;28;20221;-68
2022/03/05 06:12:06;;;;;;;3.35;3.05;;;20.90;50.40;;;;;;4991535;28;20208;-68
2022/03/05 06:14:32;;;;;;;4.28;3.88;;;20.90;50.40;;;;;;4992405;28;20180;-68
2022/03/05 06:16:57;;;;;;;7.43;5.70;;;20.90;50.40;;;;;;4959616;28;20181;-69
2022/03/05 06:19:23;;;;;;;6.32;5.72;;;20.90;50.40;;;;;;4975440;28;20235;-69
2022/03/05 06:21:49;;;;;;;7.10;6.40;;;20.90;50.40;;;;;;4992493;28;20211;-69
2022/03/05 06:24:15;;;;;;;5.55;4.97;;;20.90;50.30;;;;;;4975366;28;20184;-68
2022/03/05 06:26:40;;;;;;;4.60;4.20;;;20.90;50.20;;;;;;4959162;28;20185;-69
2022/03/05 06:29:06;;;;;;;4.78;4.35;;;20.90;50.30;;;;;;4975310;28;20188;-69
2022/03/05 06:31:32;;;;;;;4.95;4.45;;;20.90;50.10;;;;;;4975017;28;20751;-69
2022/03/05 06:33:58;;;;;;;5.18;4.68;;;20.90;50.20;;;;;;4975354;28;20185;-69
2022/03/05 06:36:23;;;;;;;5.20;4.75;;;20.90;50.20;;;;;;4992565;28;20181;-69
2022/03/05 06:38:51;;;;;;;5.15;4.68;;;20.90;50.20;;;;;;4975641;28;20178;-68
2022/03/05 06:41:17;;;;;;;4.90;4.40;;;20.90;50.20;;;;;;4958851;28;20189;-68
2022/03/05 06:43:43;;;;;;;4.40;4.00;;;20.90;50.10;;;;;;4959078;28;20199;-69
2022/03/05 06:46:08;;;;;;;4.25;3.65;;;20.90;50.10;;;;;;4975077;28;20192;-69
2022/03/05 06:48:34;;;;;;;5.53;4.07;;;20.90;50.30;;;;;;4975114;28;20181;-70
2022/03/05 06:51:00;;;;;;;4.03;3.60;;;20.90;50.40;;;;;;4974726;28;20223;-68
2022/03/05 06:53:25;;;;;;;4.63;3.70;;;20.90;50.50;;;;;;4975056;28;20205;-69
2022/03/05 06:55:51;;;;;;;4.43;4.03;;;20.90;50.60;;;;;;4959121;28;20196;-69
2022/03/05 06:58:17;;;;;;;4.20;3.80;;;20.90;50.60;;;;;;4959163;28;20193;-68
2022/03/05 07:00:44;;;;;;;4.60;4.15;;;20.90;50.60;;;;;;4974921;28;20277;-68
2022/03/05 07:03:10;;;;;;;4.03;3.63;;;20.90;50.70;;;;;;4992171;28;20219;-69
2022/03/05 07:05:35;;;;;;;4.25;3.70;;;20.90;50.70;;;;;;4974985;28;20220;-69
2022/03/05 07:08:02;;;;;;;4.10;3.80;;;20.90;50.70;;;;;;4992323;28;20268;-69
2022/03/05 07:10:27;;;;;;;4.75;4.15;;;20.90;50.70;;;;;;4959183;28;20221;-69
2022/03/05 07:12:53;;;;;;;6.28;4.53;;;20.90;50.70;;;;;;4958890;28;20201;-69
2022/03/05 07:15:19;;;;;;;5.88;4.53;;;20.90;50.70;;;;;;4975142;28;20188;-69
2022/03/05 07:17:53;;;;;;;5.70;5.20;;;20.90;50.70;;;;;;4975101;28;20193;-69
2022/03/05 07:20:20;;;;;;;5.97;5.25;;;20.90;50.70;;;;;;4974926;28;20177;-69
2022/03/05 07:22:46;;;;;;;5.97;5.15;;;20.90;50.60;;;;;;4958441;28;20697;-68
2022/03/05 07:25:12;;;;;;;7.13;4.93;;;20.90;50.60;;;;;;4992548;28;20185;-69
2022/03/05 07:27:39;;;;;;;5.70;5.18;;;20.90;50.60;;;;;;4978168;28;20263;-69
2022/03/05 07:30:08;;;;;;;5.75;5.18;;;20.90;50.40;;;;;;4978165;28;20212;-69
2022/03/05 07:32:35;;;;;;;5.60;5.07;;;20.90;50.40;;;;;;4963619;28;20212;-72
2022/03/05 07:35:02;;;;;;;6.45;4.88;;;20.90;50.40;;;;;;4981406;28;20186;-68
2022/03/05 07:37:27;;;;;;;4.85;4.28;;;20.90;50.40;;;;;;4978189;28;20185;-69
2022/03/05 07:39:53;;;;;;;4.85;3.97;;;20.90;50.50;;;;;;4995456;28;20196;-69
2022/03/05 07:42:19;;;;;;;4.55;4.20;;;20.90;50.50;;;;;;4977555;28;20209;-68
2022/03/05 07:44:45;;;;;;;4.70;4.15;;;20.90;50.50;;;;;;4961970;28;20193;-68
2022/03/05 07:47:10;;;;;;;4.88;4.45;;;20.80;50.40;;;;;;4994130;28;20602;-69
2022/03/05 07:49:36;;;;;;;5.53;4.68;;;20.90;50.60;;;;;;4995284;28;20186;-69
2022/03/05 07:52:02;;;;;;;4.65;4.20;;;20.90;50.60;;;;;;4961533;28;20245;-68
2022/03/05 07:54:28;;;;;;;4.72;4.30;;;20.90;50.80;;;;;;4977956;28;20184;-69
2022/03/05 07:56:55;;;;;;;6.22;4.28;;;20.90;50.50;;;;;;4961969;28;20189;-69
2022/03/05 07:59:21;;;;;;;4.97;4.20;;;20.90;50.40;;;;;;4961944;28;20188;-69
2022/03/05 08:01:47;;;;;;;4.70;4.25;;;20.90;50.40;;;;;;4994987;28;20211;-69
2022/03/05 08:04:13;;;;;;;4.38;3.97;;;20.90;50.40;;;;;;4973001;28;20182;-69
2022/03/05 08:06:40;;;;;;;5.22;4.72;;;20.90;50.30;;;;;;4974369;28;20201;-69
2022/03/05 08:09:06;;;;;;;5.20;4.70;;;20.90;50.30;;;;;;4942569;28;20189;-69
2022/03/05 08:11:31;;;;;;;6.60;5.15;;;20.90;50.30;;;;;;4958177;28;20221;-68
2022/03/05 08:13:57;;;;;;;5.05;4.55;;;20.90;50.30;;;;;;4957981;28;20253;-69
2022/03/05 08:16:23;;;;;;;5.93;5.10;;;20.90;50.20;;;;;;4958110;28;20185;-69
2022/03/05 08:18:49;;;;;;;6.93;4.82;;;20.90;50.10;;;;;;4958388;28;20177;-69
2022/03/05 08:21:14;;;;;;;6.10;5.50;;;20.90;50.40;;;;;;4975089;28;20219;-68
2022/03/05 08:23:40;;;;;;;6.32;5.30;;;20.90;50.10;;;;;;4975182;28;20189;-69
2022/03/05 08:26:10;;;;;;;5.80;5.07;;;20.90;50.10;;;;;;4958098;28;20201;-68
2022/03/05 08:28:37;;;;;;;6.03;5.43;;;20.90;50.10;;;;;;4958165;28;20204;-69
2022/03/05 08:31:03;;;;;;;4.63;4.15;;;20.90;49.90;;;;;;4947265;29;20293;-69
2022/03/05 08:33:29;;;;;;;7.22;5.55;;;20.90;49.90;;;;;;4922567;29;20290;-69
2022/03/05 08:35:55;;;;;;;5.20;4.60;;;20.90;49.60;;;;;;4924912;28;20182;-69
2022/03/05 08:38:21;;;;;;;6.35;4.10;;;21.10;49.80;;;;;;4955315;28;20264;-69
2022/03/05 08:40:47;;;;;;;5.68;4.30;;;21.10;49.90;;;;;;4970642;28;20202;-68
2022/03/05 08:43:13;;;;;;;4.90;4.50;;;21.10;49.70;;;;;;4938050;29;20232;-70
2022/03/05 08:45:40;;;;;;;4.68;4.00;;;21.10;49.70;;;;;;4938727;29;20233;-70
2022/03/05 08:48:06;;;;;;;8.05;4.47;;;21.10;49.80;;;;;;4955473;29;20196;-69
2022/03/05 08:50:35;;;;;;;4.95;4.40;;;21.20;50.30;;;;;;4955247;29;20206;-69
2022/03/05 08:53:02;;;;;;;11.82;4.68;;;21.20;50.40;;;;;;4938053;29;20217;-69
2022/03/05 08:55:27;;;;;;;8.45;4.40;;;21.20;50.40;;;;;;4970180;28;20186;-70
2022/03/05 08:57:53;;;;;;;8.55;5.40;;;21.20;50.40;;;;;;4970521;28;20198;-70
2022/03/05 09:00:19;;;;;;;6.95;4.40;;;21.20;50.40;;;;;;4970233;28;20194;-70
2022/03/05 09:02:45;;;;;;;6.60;4.40;;;21.20;50.50;;;;;;4953664;28;20704;-70
2022/03/05 09:05:14;;;;;;;5.47;4.35;;;21.30;50.60;;;;;;4955093;29;20182;-70
2022/03/05 09:07:44;;;;;;;8.23;5.35;;;21.30;50.60;;;;;;4937982;29;20191;-69
2022/03/05 09:10:11;;;;;;;11.15;5.03;;;21.30;50.60;;;;;;4922417;29;20214;-70
2022/03/05 09:12:37;;;;;;;9.30;5.65;;;21.30;50.60;;;;;;4953600;28;20244;-70
2022/03/05 09:15:05;;;;;;;7.88;6.10;;;21.30;50.60;;;;;;4954418;29;20197;-70
2022/03/05 09:17:31;;;;;;;8.23;5.97;;;21.30;50.50;;;;;;4938948;29;20187;-69
2022/03/05 09:19:58;;;;;;;9.43;5.38;;;21.30;50.40;;;;;;4953800;29;20272;-70
2022/03/05 09:22:24;;;;;;;10.50;6.60;;;21.30;50.50;;;;;;4937607;29;20221;-69
2022/03/05 09:24:50;;;;;;;11.05;7.85;;;21.30;50.60;;;;;;4969729;28;20186;-70
2022/03/05 09:27:16;;;;;;;5.90;5.30;;;21.40;50.60;;;;;;4937397;29;20675;-69
2022/03/05 09:29:42;;;;;;;9.88;5.97;;;21.30;50.50;;;;;;4937827;29;20706;-69
2022/03/05 09:32:09;;;;;;;7.78;5.50;;;21.30;50.40;;;;;;4921729;29;20216;-67
2022/03/05 09:34:36;;;;;;;8.02;5.45;;;21.40;50.50;;;;;;4937457;29;20241;-69
2022/03/05 09:37:03;;;;;;;7.60;5.47;;;21.40;50.60;;;;;;4954586;29;20182;-68
2022/03/05 09:39:28;;;;;;;5.65;5.05;;;21.40;50.50;;;;;;4953403;29;20186;-69
2022/03/05 09:41:54;;;;;;;6.20;5.30;;;21.40;50.50;;;;;;4937447;29;20208;-69
2022/03/05 09:44:20;;;;;;;9.30;4.63;;;21.30;50.40;;;;;;4937256;29;20251;-66
2022/03/05 09:46:47;;;;;;;6.15;4.80;;;21.40;50.50;;;;;;4953633;29;20225;-68
2022/03/05 09:49:14;;;;;;;8.13;5.32;;;21.30;50.40;;;;;;4936920;29;20224;-69
2022/03/05 09:51:40;;;;;;;7.15;4.93;;;21.40;50.60;;;;;;4936879;29;20292;-69
2022/03/05 09:54:05;;;;;;;7.05;4.70;;;21.40;50.70;;;;;;4937398;29;20246;-69
2022/03/05 09:56:32;;;;;;;8.77;4.93;;;21.40;50.60;;;;;;4954278;28;20190;-69
2022/03/05 09:58:58;;;;;;;7.07;5.32;;;21.40;50.70;;;;;;4953242;29;20285;-69
2022/03/05 10:01:24;;;;;;;6.30;4.75;;;21.40;50.70;;;;;;4936843;28;20277;-69
2022/03/05 10:03:53;;;;;;;9.35;5.60;;;21.40;50.70;;;;;;4937201;29;20228;-68
2022/03/05 10:06:24;;;;;;;6.82;4.47;;;21.40;50.80;;;;;;4953253;29;20186;-69
2022/03/05 10:08:55;;;;;;;7.35;4.75;;;21.40;50.80;;;;;;4952991;29;20186;-69
2022/03/05 10:11:23;;;;;;;6.15;4.82;;;21.40;50.70;;;;;;4953075;28;20217;-68
2022/03/05 10:13:50;;;;;;;7.03;5.03;;;21.40;50.70;;;;;;4937112;29;20179;-69
2022/03/05 10:16:29;;;;;;;5.57;4.95;;;21.40;50.70;;;;;;4936551;28;20186;-69
2022/03/05 10:19:22;;;;;;;10.48;5.35;;;21.40;50.60;;;;;;4937012;29;20196;-69
2022/03/05 10:22:15;;;;;;;8.32;4.72;;;21.40;50.50;;;;;;4936708;29;20242;-69
2022/03/05 10:24:41;;;;;;;16.40;5.45;;;21.40;50.60;;;;;;4933865;29;20260;-69
2022/03/05 10:27:09;;;;;;;11.13;5.00;;;21.40;50.40;;;;;;4936819;29;20191;-69
2022/03/05 10:29:39;;;;;;;8.98;4.85;;;21.40;50.50;;;;;;4936728;29;20198;-70
2022/03/05 10:32:11;;;;;;;11.48;4.82;;;21.40;50.50;;;;;;4953765;28;20213;-69
2022/03/05 10:34:47;;;;;;;5.35;4.22;;;21.40;50.60;;;;;;4937076;29;20190;-69
2022/03/05 10:37:13;;;;;;;9.15;4.57;;;21.30;50.40;;;;;;4937095;29;20197;-69
2022/03/05 10:39:39;;;;;;;8.95;4.75;;;21.30;50.30;;;;;;4952706;28;20190;-69
2022/03/05 10:42:24;;;;;;;8.55;4.22;;;21.30;50.40;;;;;;4936748;29;20213;-69
2022/03/05 10:45:08;;;;;;;8.50;4.82;;;21.20;50.10;;;;;;4952780;29;20186;-69
2022/03/05 10:47:42;;;;;;;10.25;5.18;;;21.20;50.00;;;;;;4953850;29;20667;-68
2022/03/05 10:50:21;;;;;;;9.02;4.25;;;21.20;49.90;;;;;;4952607;29;20225;-69
2022/03/05 10:52:50;;;;;;;8.23;4.47;;;21.20;49.90;;;;;;4936501;29;20212;-68
2022/03/05 10:55:24;;;;;;;7.82;4.45;;;21.20;49.70;;;;;;4936558;29;20245;-68
2022/03/05 10:58:17;;;;;;;6.28;4.32;;;21.20;49.70;;;;;;4937043;29;20202;-69
2022/03/05 11:00:46;;;;;;;6.18;4.22;;;21.20;49.60;;;;;;4955334;28;20179;-69
2022/03/05 11:03:12;;;;;;;9.43;4.25;;;21.20;49.70;;;;;;4955740;28;20595;-69
2022/03/05 11:05:39;;;;;;;8.73;4.30;;;21.20;49.70;;;;;;4940256;29;20187;-69
2022/03/05 11:08:06;;;;;;;9.70;4.70;;;21.20;49.50;;;;;;4940185;29;20194;-69
2022/03/05 11:10:33;;;;;;;8.40;4.70;;;21.20;49.60;;;;;;4939986;29;20225;-68
2022/03/05 11:13:02;;;;;;;7.85;3.70;;;21.20;49.60;;;;;;4939774;29;20206;-69
2022/03/05 11:15:30;;;;;;;6.32;3.97;;;21.20;49.50;;;;;;4939926;29;20277;-69
2022/03/05 11:18:01;;;;;;;9.75;4.45;;;21.20;49.50;;;;;;4955981;29;20193;-69
2022/03/05 11:20:27;;;;;;;6.55;3.85;;;21.20;50.10;;;;;;4940469;29;20201;-69
2022/03/05 11:22:55;;;;;;;7.55;4.60;;;21.20;49.40;;;;;;4940489;29;20210;-69
2022/03/05 11:25:26;;;;;;;4.82;4.22;;;21.20;50.10;;;;;;4947343;28;20197;-69
2022/03/05 11:27:58;;;;;;;10.00;4.60;;;21.20;49.40;;;;;;4958066;28;20190;-69
2022/03/05 11:30:25;;;;;;;8.88;4.30;;;21.10;49.40;;;;;;4958770;28;20217;-69
2022/03/05 11:32:51;;;;;;;7.45;5.43;;;21.10;49.40;;;;;;4991114;28;20205;-68
2022/03/05 11:35:24;;;;;;;7.68;5.07;;;21.10;49.40;;;;;;4959191;28;20221;-68
2022/03/05 11:37:51;;;;;;;7.10;4.43;;;21.20;49.40;;;;;;4974949;28;20177;-69
2022/03/05 11:40:50;;;;;;;8.32;4.70;;;21.20;49.40;;;;;;4975259;28;20214;-68
2022/03/05 11:43:20;;;;;;;5.22;4.18;;;21.10;49.20;;;;;;4942710;28;20217;-68
2022/03/05 11:46:03;;;;;;;6.03;3.88;;;21.20;49.40;;;;;;4974719;28;20228;-68
2022/03/05 11:48:38;;;;;;;6.47;4.22;;;21.10;49.30;;;;;;4974747;28;20241;-68
2022/03/05 11:51:16;;;;;;;7.07;4.25;;;21.20;49.40;;;;;;4974239;28;20221;-69
2022/03/05 11:53:42;;;;;;;5.63;4.60;;;21.10;49.30;;;;;;4970073;28;20206;-68
2022/03/05 11:56:25;;;;;;;8.27;4.88;;;21.10;49.40;;;;;;4939705;29;20209;-68
2022/03/05 11:58:51;;;;;;;6.43;4.90;;;21.20;49.30;;;;;;4955356;29;20182;-68
2022/03/05 12:01:43;;;;;;;5.05;4.50;;;21.10;49.10;;;;;;4959984;28;20205;-66
2022/03/05 12:04:46;;;;;;;4.95;4.07;;;21.10;49.90;;;;;;4938707;28;20297;-69
2022/03/05 12:07:13;;;;;;;6.53;3.90;;;21.10;49.30;;;;;;4962469;28;20197;-68
2022/03/05 12:10:02;;;;;;;6.28;4.10;;;21.10;49.30;;;;;;4958160;28;20673;-68
2022/03/05 12:12:59;;;;;;;5.95;4.43;;;21.10;49.30;;;;;;4957779;28;20233;-68
2022/03/05 12:15:33;;;;;;;6.70;4.47;;;21.10;49.10;;;;;;4957186;28;20205;-68
2022/03/05 12:18:01;;;;;;;4.55;3.88;;;21.10;49.20;;;;;;4957879;28;20192;-68
2022/03/05 12:20:39;;;;;;;8.57;4.55;;;21.10;49.50;;;;;;4957937;28;20260;-69
2022/03/05 12:23:07;;;;;;;7.85;4.00;;;21.10;49.30;;;;;;4958054;28;20219;-69
2022/03/05 12:25:37;;;;;;;7.20;3.85;;;21.10;50.10;;;;;;4958205;28;20236;-68
2022/03/05 12:28:06;;;;;;;6.22;4.07;;;21.10;49.40;;;;;;4967272;28;20289;-68
2022/03/05 12:30:38;;;;;;;4.70;4.15;;;21.10;49.50;;;;;;4941729;28;20213;-69
2022/03/05 12:33:07;;;;;;;4.97;3.97;;;21.10;49.30;;;;;;4974842;28;20225;-68
2022/03/05 12:35:35;;;;;;;5.68;3.88;;;21.10;49.20;;;;;;4946378;29;20238;-69
2022/03/05 12:38:01;;;;;;;5.20;4.53;;;21.20;49.10;;;;;;4954552;29;20250;-68
2022/03/05 12:40:31;;;;;;;5.72;5.13;;;21.10;49.00;;;;;;4951749;28;20225;-68
2022/03/05 12:42:58;;;;;;;10.45;5.10;;;21.10;48.70;;;;;;4963681;28;20205;-69
2022/03/05 12:45:29;;;;;;;4.57;4.10;;;21.10;48.80;;;;;;4972442;28;20264;-69
2022/03/05 12:48:08;;;;;;;5.28;4.57;;;21.00;48.80;;;;;;4957645;28;20627;-69
2022/03/05 12:50:37;;;;;;;4.97;4.50;;;21.10;48.80;;;;;;4957397;28;20213;-69